sensor_id;sensor_type;location;lat;lon;timestamp;temperature;humidity
40257;DHT22;25977;45.462;9.210;2023-07-08T00:00:37;26.20;74.80
40257;DHT22;25977;45.462;9.210;2023-07-08T00:03:03;26.20;74.70
40257;DHT22;25977;45.462;9.210;2023-07-08T00:05:29;26.20;74.80
40257;DHT22;25977;45.462;9.210;2023-07-08T00:07:54;26.20;74.90
40257;DHT22;25977;45.462;9.210;2023-07-08T00:10:22;26.20;75.00
40257;DHT22;25977;45.462;9.210;2023-07-08T00:12:51;26.10;75.00
40257;DHT22;25977;45.462;9.210;2023-07-08T00:15:25;26.10;75.20
40257;DHT22;25977;45.462;9.210;2023-07-08T00:17:51;25.90;75.30
40257;DHT22;25977;45.462;9.210;2023-07-08T00:20:32;26.00;75.30
40257;DHT22;25977;45.462;9.210;2023-07-08T00:22:58;26.00;75.20
40257;DHT22;25977;45.462;9.210;2023-07-08T00:25:27;26.00;75.20
40257;DHT22;25977;45.462;9.210;2023-07-08T00:27:53;26.10;75.20
40257;DHT22;25977;45.462;9.210;2023-07-08T00:30:27;26.00;75.00
40257;DHT22;25977;45.462;9.210;2023-07-08T00:32:54;26.00;74.90
40257;DHT22;25977;45.462;9.210;2023-07-08T00:37:57;26.00;74.80
40257;DHT22;25977;45.462;9.210;2023-07-08T00:40:28;26.00;74.90
40257;DHT22;25977;45.462;9.210;2023-07-08T00:42:54;26.00;74.80
40257;DHT22;25977;45.462;9.210;2023-07-08T00:45:31;26.00;74.80
40257;DHT22;25977;45.462;9.210;2023-07-08T00:48:05;26.00;74.80
40257;DHT22;25977;45.462;9.210;2023-07-08T00:50:32;25.90;75.30
40257;DHT22;25977;45.462;9.210;2023-07-08T00:53:30;25.90;74.70
40257;DHT22;25977;45.462;9.210;2023-07-08T00:56:38;25.90;74.70
40257;DHT22;25977;45.462;9.210;2023-07-08T00:59:08;25.90;74.70
40257;DHT22;25977;45.462;9.210;2023-07-08T01:01:37;25.80;74.70
40257;DHT22;25977;45.462;9.210;2023-07-08T01:04:32;25.80;74.80
40257;DHT22;25977;45.462;9.210;2023-07-08T01:06:59;25.80;74.60
40257;DHT22;25977;45.462;9.210;2023-07-08T01:09:34;25.80;74.60
40257;DHT22;25977;45.462;9.210;2023-07-08T01:12:04;25.80;74.60
40257;DHT22;25977;45.462;9.210;2023-07-08T01:14:34;25.80;74.70
40257;DHT22;25977;45.462;9.210;2023-07-08T01:17:01;25.80;74.50
40257;DHT22;25977;45.462;9.210;2023-07-08T01:19:28;25.80;74.40
40257;DHT22;25977;45.462;9.210;2023-07-08T01:22:01;25.80;74.50
40257;DHT22;25977;45.462;9.210;2023-07-08T01:24:29;25.80;74.40
40257;DHT22;25977;45.462;9.210;2023-07-08T01:26:58;25.80;74.40
40257;DHT22;25977;45.462;9.210;2023-07-08T01:29:25;25.80;74.30
40257;DHT22;25977;45.462;9.210;2023-07-08T01:31:51;25.80;74.40
40257;DHT22;25977;45.462;9.210;2023-07-08T01:34:17;25.80;74.20
40257;DHT22;25977;45.462;9.210;2023-07-08T01:36:54;25.80;74.30
40257;DHT22;25977;45.462;9.210;2023-07-08T01:39:23;25.70;74.10
40257;DHT22;25977;45.462;9.210;2023-07-08T01:41:49;25.80;74.20
40257;DHT22;25977;45.462;9.210;2023-07-08T01:46:50;25.80;74.10
40257;DHT22;25977;45.462;9.210;2023-07-08T01:49:16;25.80;73.90
40257;DHT22;25977;45.462;9.210;2023-07-08T01:51:42;25.80;73.90
40257;DHT22;25977;45.462;9.210;2023-07-08T01:54:09;25.70;73.80
40257;DHT22;25977;45.462;9.210;2023-07-08T01:56:34;25.80;74.00
40257;DHT22;25977;45.462;9.210;2023-07-08T01:59:00;25.80;74.10
40257;DHT22;25977;45.462;9.210;2023-07-08T02:01:27;25.70;73.90
40257;DHT22;25977;45.462;9.210;2023-07-08T02:03:52;25.70;73.90
40257;DHT22;25977;45.462;9.210;2023-07-08T02:06:20;25.70;73.90
40257;DHT22;25977;45.462;9.210;2023-07-08T02:08:45;25.70;73.70
40257;DHT22;25977;45.462;9.210;2023-07-08T02:11:11;25.60;73.90
40257;DHT22;25977;45.462;9.210;2023-07-08T02:13:36;25.60;74.10
40257;DHT22;25977;45.462;9.210;2023-07-08T02:16:02;25.60;74.10
40257;DHT22;25977;45.462;9.210;2023-07-08T02:18:28;25.60;74.20
40257;DHT22;25977;45.462;9.210;2023-07-08T02:20:58;25.60;74.40
40257;DHT22;25977;45.462;9.210;2023-07-08T02:23:25;25.60;74.50
40257;DHT22;25977;45.462;9.210;2023-07-08T02:25:52;25.60;74.60
40257;DHT22;25977;45.462;9.210;2023-07-08T02:28:18;25.60;74.70
40257;DHT22;25977;45.462;9.210;2023-07-08T02:30:43;25.60;74.60
40257;DHT22;25977;45.462;9.210;2023-07-08T02:33:11;25.60;74.70
40257;DHT22;25977;45.462;9.210;2023-07-08T02:35:37;25.60;74.70
40257;DHT22;25977;45.462;9.210;2023-07-08T02:38:03;25.60;74.70
40257;DHT22;25977;45.462;9.210;2023-07-08T02:40:28;25.60;74.90
40257;DHT22;25977;45.462;9.210;2023-07-08T02:42:54;25.60;74.70
40257;DHT22;25977;45.462;9.210;2023-07-08T02:45:20;25.60;74.70
40257;DHT22;25977;45.462;9.210;2023-07-08T02:47:46;25.60;74.70
40257;DHT22;25977;45.462;9.210;2023-07-08T02:50:12;25.60;74.60
40257;DHT22;25977;45.462;9.210;2023-07-08T02:52:38;25.50;74.80
40257;DHT22;25977;45.462;9.210;2023-07-08T02:55:04;25.50;75.40
40257;DHT22;25977;45.462;9.210;2023-07-08T02:57:30;25.60;74.90
40257;DHT22;25977;45.462;9.210;2023-07-08T02:59:55;25.60;75.20
40257;DHT22;25977;45.462;9.210;2023-07-08T03:02:22;25.60;75.10
40257;DHT22;25977;45.462;9.210;2023-07-08T03:04:48;25.60;75.10
40257;DHT22;25977;45.462;9.210;2023-07-08T03:07:16;25.60;75.30
40257;DHT22;25977;45.462;9.210;2023-07-08T03:09:42;25.60;75.20
40257;DHT22;25977;45.462;9.210;2023-07-08T03:12:10;25.50;75.00
40257;DHT22;25977;45.462;9.210;2023-07-08T03:14:36;25.50;75.10
40257;DHT22;25977;45.462;9.210;2023-07-08T03:17:03;25.60;75.20
40257;DHT22;25977;45.462;9.210;2023-07-08T03:19:29;25.50;75.00
40257;DHT22;25977;45.462;9.210;2023-07-08T03:21:55;25.50;74.90
40257;DHT22;25977;45.462;9.210;2023-07-08T03:24:21;25.50;75.00
40257;DHT22;25977;45.462;9.210;2023-07-08T03:26:48;25.50;74.90
40257;DHT22;25977;45.462;9.210;2023-07-08T03:29:16;25.40;75.10
40257;DHT22;25977;45.462;9.210;2023-07-08T03:31:43;25.40;75.00
40257;DHT22;25977;45.462;9.210;2023-07-08T03:34:13;25.40;74.90
40257;DHT22;25977;45.462;9.210;2023-07-08T03:36:48;25.40;74.70
40257;DHT22;25977;45.462;9.210;2023-07-08T03:39:21;25.40;74.70
40257;DHT22;25977;45.462;9.210;2023-07-08T03:41:48;25.40;74.40
40257;DHT22;25977;45.462;9.210;2023-07-08T03:44:14;25.40;74.50
40257;DHT22;25977;45.462;9.210;2023-07-08T03:46:47;25.40;74.50
40257;DHT22;25977;45.462;9.210;2023-07-08T03:49:17;25.40;74.60
40257;DHT22;25977;45.462;9.210;2023-07-08T03:51:48;25.40;74.60
40257;DHT22;25977;45.462;9.210;2023-07-08T03:54:18;25.40;74.60
40257;DHT22;25977;45.462;9.210;2023-07-08T03:56:44;25.40;74.70
40257;DHT22;25977;45.462;9.210;2023-07-08T03:59:11;25.40;74.80
40257;DHT22;25977;45.462;9.210;2023-07-08T04:01:37;25.40;74.80
40257;DHT22;25977;45.462;9.210;2023-07-08T04:04:11;25.40;74.80
40257;DHT22;25977;45.462;9.210;2023-07-08T04:06:38;25.40;74.90
40257;DHT22;25977;45.462;9.210;2023-07-08T04:09:06;25.50;75.00
40257;DHT22;25977;45.462;9.210;2023-07-08T04:11:32;25.50;75.00
40257;DHT22;25977;45.462;9.210;2023-07-08T04:13:58;25.50;75.10
40257;DHT22;25977;45.462;9.210;2023-07-08T04:16:31;25.50;75.20
40257;DHT22;25977;45.462;9.210;2023-07-08T04:18:57;25.50;75.30
40257;DHT22;25977;45.462;9.210;2023-07-08T04:21:24;25.50;75.30
40257;DHT22;25977;45.462;9.210;2023-07-08T04:23:55;25.50;75.40
40257;DHT22;25977;45.462;9.210;2023-07-08T04:26:20;25.40;75.40
40257;DHT22;25977;45.462;9.210;2023-07-08T04:28:47;25.40;75.30
40257;DHT22;25977;45.462;9.210;2023-07-08T04:31:12;25.50;75.40
40257;DHT22;25977;45.462;9.210;2023-07-08T04:33:38;25.50;75.50
40257;DHT22;25977;45.462;9.210;2023-07-08T04:36:04;25.50;75.30
40257;DHT22;25977;45.462;9.210;2023-07-08T04:38:33;25.40;75.40
40257;DHT22;25977;45.462;9.210;2023-07-08T04:41:02;25.40;75.20
40257;DHT22;25977;45.462;9.210;2023-07-08T04:43:27;25.40;75.40
40257;DHT22;25977;45.462;9.210;2023-07-08T04:45:55;25.40;75.40
40257;DHT22;25977;45.462;9.210;2023-07-08T04:48:22;25.40;75.60
40257;DHT22;25977;45.462;9.210;2023-07-08T04:50:51;25.40;75.50
40257;DHT22;25977;45.462;9.210;2023-07-08T04:53:17;25.40;75.50
40257;DHT22;25977;45.462;9.210;2023-07-08T04:55:46;25.50;75.60
40257;DHT22;25977;45.462;9.210;2023-07-08T04:58:13;25.50;75.60
40257;DHT22;25977;45.462;9.210;2023-07-08T05:00:39;25.50;75.70
40257;DHT22;25977;45.462;9.210;2023-07-08T05:03:05;25.50;75.60
40257;DHT22;25977;45.462;9.210;2023-07-08T05:05:30;25.50;75.50
40257;DHT22;25977;45.462;9.210;2023-07-08T05:07:56;25.50;75.40
40257;DHT22;25977;45.462;9.210;2023-07-08T05:10:22;25.50;75.50
40257;DHT22;25977;45.462;9.210;2023-07-08T05:12:48;25.60;75.50
40257;DHT22;25977;45.462;9.210;2023-07-08T05:15:14;25.60;75.40
40257;DHT22;25977;45.462;9.210;2023-07-08T05:17:40;25.60;75.30
40257;DHT22;25977;45.462;9.210;2023-07-08T05:20:09;25.60;75.60
40257;DHT22;25977;45.462;9.210;2023-07-08T05:22:35;25.60;75.70
40257;DHT22;25977;45.462;9.210;2023-07-08T05:25:01;25.70;75.90
40257;DHT22;25977;45.462;9.210;2023-07-08T05:27:27;26.10;75.50
40257;DHT22;25977;45.462;9.210;2023-07-08T05:29:53;26.60;74.40
40257;DHT22;25977;45.462;9.210;2023-07-08T05:32:19;27.10;73.60
40257;DHT22;25977;45.462;9.210;2023-07-08T05:34:45;27.40;73.10
40257;DHT22;25977;45.462;9.210;2023-07-08T05:37:11;27.70;72.80
40257;DHT22;25977;45.462;9.210;2023-07-08T05:39:37;28.60;71.00
40257;DHT22;25977;45.462;9.210;2023-07-08T05:42:04;29.50;69.20
40257;DHT22;25977;45.462;9.210;2023-07-08T05:44:29;30.40;68.30
40257;DHT22;25977;45.462;9.210;2023-07-08T05:46:55;31.10;67.00
40257;DHT22;25977;45.462;9.210;2023-07-08T05:49:21;31.90;65.90
40257;DHT22;25977;45.462;9.210;2023-07-08T05:51:47;32.50;65.00
40257;DHT22;25977;45.462;9.210;2023-07-08T05:54:13;32.90;64.00
40257;DHT22;25977;45.462;9.210;2023-07-08T05:56:39;33.40;63.00
40257;DHT22;25977;45.462;9.210;2023-07-08T05:59:05;33.10;63.20
40257;DHT22;25977;45.462;9.210;2023-07-08T06:01:31;33.10;63.70
40257;DHT22;25977;45.462;9.210;2023-07-08T06:03:57;33.20;63.40
40257;DHT22;25977;45.462;9.210;2023-07-08T06:06:27;33.10;63.40
40257;DHT22;25977;45.462;9.210;2023-07-08T06:08:53;32.50;64.10
40257;DHT22;25977;45.462;9.210;2023-07-08T06:11:19;31.90;64.80
40257;DHT22;25977;45.462;9.210;2023-07-08T06:13:45;31.40;65.60
40257;DHT22;25977;45.462;9.210;2023-07-08T06:16:12;31.10;66.10
40257;DHT22;25977;45.462;9.210;2023-07-08T06:18:37;31.00;66.10
40257;DHT22;25977;45.462;9.210;2023-07-08T06:21:03;30.80;66.10
40257;DHT22;25977;45.462;9.210;2023-07-08T06:23:29;30.60;66.50
40257;DHT22;25977;45.462;9.210;2023-07-08T06:25:55;30.40;67.00
40257;DHT22;25977;45.462;9.210;2023-07-08T06:28:21;30.40;67.30
40257;DHT22;25977;45.462;9.210;2023-07-08T06:30:48;30.40;67.20
40257;DHT22;25977;45.462;9.210;2023-07-08T06:33:14;30.60;66.80
40257;DHT22;25977;45.462;9.210;2023-07-08T06:35:40;31.00;66.00
40257;DHT22;25977;45.462;9.210;2023-07-08T06:38:06;31.50;65.40
40257;DHT22;25977;45.462;9.210;2023-07-08T06:40:33;31.80;64.50
40257;DHT22;25977;45.462;9.210;2023-07-08T06:42:59;32.00;65.10
40257;DHT22;25977;45.462;9.210;2023-07-08T06:45:36;32.00;65.30
40257;DHT22;25977;45.462;9.210;2023-07-08T06:48:02;31.80;65.30
40257;DHT22;25977;45.462;9.210;2023-07-08T06:50:28;31.70;65.00
40257;DHT22;25977;45.462;9.210;2023-07-08T06:52:54;31.60;64.60
40257;DHT22;25977;45.462;9.210;2023-07-08T06:55:19;31.50;64.80
40257;DHT22;25977;45.462;9.210;2023-07-08T06:57:46;31.30;64.90
40257;DHT22;25977;45.462;9.210;2023-07-08T07:00:13;31.10;65.20
40257;DHT22;25977;45.462;9.210;2023-07-08T07:02:39;30.90;65.80
40257;DHT22;25977;45.462;9.210;2023-07-08T07:05:05;30.70;66.50
40257;DHT22;25977;45.462;9.210;2023-07-08T07:07:31;30.60;66.60
40257;DHT22;25977;45.462;9.210;2023-07-08T07:09:57;30.50;66.70
40257;DHT22;25977;45.462;9.210;2023-07-08T07:12:24;30.40;66.60
40257;DHT22;25977;45.462;9.210;2023-07-08T07:14:50;30.40;66.70
40257;DHT22;25977;45.462;9.210;2023-07-08T07:17:19;30.50;66.60
40257;DHT22;25977;45.462;9.210;2023-07-08T07:19:45;30.50;66.30
40257;DHT22;25977;45.462;9.210;2023-07-08T07:22:10;30.50;66.50
40257;DHT22;25977;45.462;9.210;2023-07-08T07:24:36;30.60;66.60
40257;DHT22;25977;45.462;9.210;2023-07-08T07:27:02;30.70;66.30
40257;DHT22;25977;45.462;9.210;2023-07-08T07:29:27;30.80;66.20
40257;DHT22;25977;45.462;9.210;2023-07-08T07:31:53;31.00;65.40
40257;DHT22;25977;45.462;9.210;2023-07-08T07:34:20;31.20;65.50
40257;DHT22;25977;45.462;9.210;2023-07-08T07:36:46;31.30;65.00
40257;DHT22;25977;45.462;9.210;2023-07-08T07:39:11;31.30;65.20
40257;DHT22;25977;45.462;9.210;2023-07-08T07:41:37;31.40;64.20
40257;DHT22;25977;45.462;9.210;2023-07-08T07:44:03;31.40;64.50
40257;DHT22;25977;45.462;9.210;2023-07-08T07:46:29;31.40;63.80
40257;DHT22;25977;45.462;9.210;2023-07-08T07:48:55;31.40;64.10
40257;DHT22;25977;45.462;9.210;2023-07-08T07:51:20;31.40;63.70
40257;DHT22;25977;45.462;9.210;2023-07-08T07:53:46;31.50;63.70
40257;DHT22;25977;45.462;9.210;2023-07-08T07:56:12;31.60;63.60
40257;DHT22;25977;45.462;9.210;2023-07-08T07:58:37;31.70;63.60
40257;DHT22;25977;45.462;9.210;2023-07-08T08:01:03;31.70;63.50
40257;DHT22;25977;45.462;9.210;2023-07-08T08:03:29;31.70;63.40
40257;DHT22;25977;45.462;9.210;2023-07-08T08:05:55;31.70;63.30
40257;DHT22;25977;45.462;9.210;2023-07-08T08:08:20;31.60;63.70
40257;DHT22;25977;45.462;9.210;2023-07-08T08:10:48;31.60;64.40
40257;DHT22;25977;45.462;9.210;2023-07-08T08:13:13;31.40;63.80
40257;DHT22;25977;45.462;9.210;2023-07-08T08:15:39;31.40;64.00
40257;DHT22;25977;45.462;9.210;2023-07-08T08:18:05;31.50;63.90
40257;DHT22;25977;45.462;9.210;2023-07-08T08:20:30;31.60;62.90
40257;DHT22;25977;45.462;9.210;2023-07-08T08:22:56;31.50;63.10
40257;DHT22;25977;45.462;9.210;2023-07-08T08:25:24;31.40;63.20
40257;DHT22;25977;45.462;9.210;2023-07-08T08:27:50;31.40;63.40
40257;DHT22;25977;45.462;9.210;2023-07-08T08:30:17;31.40;63.40
40257;DHT22;25977;45.462;9.210;2023-07-08T08:32:43;31.30;62.90
40257;DHT22;25977;45.462;9.210;2023-07-08T08:35:09;31.30;61.80
40257;DHT22;25977;45.462;9.210;2023-07-08T08:37:34;31.40;62.10
40257;DHT22;25977;45.462;9.210;2023-07-08T08:40:00;31.40;62.20
40257;DHT22;25977;45.462;9.210;2023-07-08T08:42:34;31.20;62.10
40257;DHT22;25977;45.462;9.210;2023-07-08T08:45:02;31.10;62.70
40257;DHT22;25977;45.462;9.210;2023-07-08T08:47:39;31.10;62.70
40257;DHT22;25977;45.462;9.210;2023-07-08T08:50:31;31.30;62.80
40257;DHT22;25977;45.462;9.210;2023-07-08T08:53:00;31.30;62.70
40257;DHT22;25977;45.462;9.210;2023-07-08T08:55:26;31.40;62.40
40257;DHT22;25977;45.462;9.210;2023-07-08T09:03:10;31.00;62.70
40257;DHT22;25977;45.462;9.210;2023-07-08T09:05:37;31.00;62.90
40257;DHT22;25977;45.462;9.210;2023-07-08T09:10:55;31.10;62.90
40257;DHT22;25977;45.462;9.210;2023-07-08T09:13:31;30.90;62.50
40257;DHT22;25977;45.462;9.210;2023-07-08T09:21:28;30.90;62.70
40257;DHT22;25977;45.462;9.210;2023-07-08T09:24:01;31.00;62.30
40257;DHT22;25977;45.462;9.210;2023-07-08T09:26:30;31.20;62.40
40257;DHT22;25977;45.462;9.210;2023-07-08T09:28:56;31.30;62.20
40257;DHT22;25977;45.462;9.210;2023-07-08T09:31:30;31.30;62.20
40257;DHT22;25977;45.462;9.210;2023-07-08T09:34:15;31.30;62.70
40257;DHT22;25977;45.462;9.210;2023-07-08T09:36:46;31.30;63.10
40257;DHT22;25977;45.462;9.210;2023-07-08T09:39:15;31.00;63.10
40257;DHT22;25977;45.462;9.210;2023-07-08T09:41:43;30.90;62.70
40257;DHT22;25977;45.462;9.210;2023-07-08T09:44:27;31.00;62.60
40257;DHT22;25977;45.462;9.210;2023-07-08T09:46:57;31.10;62.80
40257;DHT22;25977;45.462;9.210;2023-07-08T09:49:34;31.30;60.30
40257;DHT22;25977;45.462;9.210;2023-07-08T09:52:01;31.10;55.90
40257;DHT22;25977;45.462;9.210;2023-07-08T09:54:27;31.20;55.80
40257;DHT22;25977;45.462;9.210;2023-07-08T09:56:58;31.30;55.90
40257;DHT22;25977;45.462;9.210;2023-07-08T09:59:27;31.30;57.70
40257;DHT22;25977;45.462;9.210;2023-07-08T10:01:54;31.00;56.60
40257;DHT22;25977;45.462;9.210;2023-07-08T10:04:22;30.80;55.90
40257;DHT22;25977;45.462;9.210;2023-07-08T10:06:47;31.00;56.00
40257;DHT22;25977;45.462;9.210;2023-07-08T10:09:18;31.00;59.10
40257;DHT22;25977;45.462;9.210;2023-07-08T10:11:50;31.10;59.20
40257;DHT22;25977;45.462;9.210;2023-07-08T10:16:50;31.00;58.50
40257;DHT22;25977;45.462;9.210;2023-07-08T10:19:18;30.80;56.50
40257;DHT22;25977;45.462;9.210;2023-07-08T10:22:18;30.80;55.10
40257;DHT22;25977;45.462;9.210;2023-07-08T10:27:40;30.90;54.40
40257;DHT22;25977;45.462;9.210;2023-07-08T10:30:24;31.00;56.40
40257;DHT22;25977;45.462;9.210;2023-07-08T10:35:30;31.10;56.10
40257;DHT22;25977;45.462;9.210;2023-07-08T10:38:17;31.10;56.00
40257;DHT22;25977;45.462;9.210;2023-07-08T10:40:53;31.00;57.30
40257;DHT22;25977;45.462;9.210;2023-07-08T10:43:47;31.10;58.30
40257;DHT22;25977;45.462;9.210;2023-07-08T10:46:37;31.20;59.60
40257;DHT22;25977;45.462;9.210;2023-07-08T10:54:57;31.20;61.10
40257;DHT22;25977;45.462;9.210;2023-07-08T11:00:35;31.10;60.00
40257;DHT22;25977;45.462;9.210;2023-07-08T11:06:29;31.30;59.00
40257;DHT22;25977;45.462;9.210;2023-07-08T11:09:02;31.10;59.10
40257;DHT22;25977;45.462;9.210;2023-07-08T11:11:39;31.20;58.20
40257;DHT22;25977;45.462;9.210;2023-07-08T11:14:09;31.20;58.50
40257;DHT22;25977;45.462;9.210;2023-07-08T11:16:49;31.10;57.60
40257;DHT22;25977;45.462;9.210;2023-07-08T11:19:30;31.20;59.00
40257;DHT22;25977;45.462;9.210;2023-07-08T11:22:00;31.10;59.00
40257;DHT22;25977;45.462;9.210;2023-07-08T11:24:46;31.20;58.50
40257;DHT22;25977;45.462;9.210;2023-07-08T11:27:20;31.10;58.80
40257;DHT22;25977;45.462;9.210;2023-07-08T11:32:26;31.00;58.60
40257;DHT22;25977;45.462;9.210;2023-07-08T11:34:53;31.10;58.30
40257;DHT22;25977;45.462;9.210;2023-07-08T11:37:21;30.90;58.70
40257;DHT22;25977;45.462;9.210;2023-07-08T11:40:18;31.00;58.50
40257;DHT22;25977;45.462;9.210;2023-07-08T11:42:48;30.90;58.60
40257;DHT22;25977;45.462;9.210;2023-07-08T11:47:47;30.90;58.20
40257;DHT22;25977;45.462;9.210;2023-07-08T11:50:30;30.70;58.00
40257;DHT22;25977;45.462;9.210;2023-07-08T11:53:01;30.80;58.50
40257;DHT22;25977;45.462;9.210;2023-07-08T11:55:43;30.70;58.30
40257;DHT22;25977;45.462;9.210;2023-07-08T11:58:23;30.70;58.10
40257;DHT22;25977;45.462;9.210;2023-07-08T12:03:39;30.90;58.20
40257;DHT22;25977;45.462;9.210;2023-07-08T12:08:58;31.00;58.00
40257;DHT22;25977;45.462;9.210;2023-07-08T12:11:27;30.80;57.80
40257;DHT22;25977;45.462;9.210;2023-07-08T12:13:59;30.70;57.90
40257;DHT22;25977;45.462;9.210;2023-07-08T12:16:26;30.80;58.40
40257;DHT22;25977;45.462;9.210;2023-07-08T12:18:53;30.90;58.10
40257;DHT22;25977;45.462;9.210;2023-07-08T12:21:23;30.90;58.20
40257;DHT22;25977;45.462;9.210;2023-07-08T12:23:49;31.00;58.30
40257;DHT22;25977;45.462;9.210;2023-07-08T12:26:15;31.00;58.50
40257;DHT22;25977;45.462;9.210;2023-07-08T12:28:42;31.10;58.70
40257;DHT22;25977;45.462;9.210;2023-07-08T12:31:17;31.20;58.60
40257;DHT22;25977;45.462;9.210;2023-07-08T12:33:44;31.20;58.50
40257;DHT22;25977;45.462;9.210;2023-07-08T12:36:13;31.20;58.70
40257;DHT22;25977;45.462;9.210;2023-07-08T12:38:43;31.20;58.80
40257;DHT22;25977;45.462;9.210;2023-07-08T12:41:18;31.30;58.80
40257;DHT22;25977;45.462;9.210;2023-07-08T12:43:45;31.40;58.60
40257;DHT22;25977;45.462;9.210;2023-07-08T12:46:12;31.50;58.60
40257;DHT22;25977;45.462;9.210;2023-07-08T12:48:39;31.60;58.40
40257;DHT22;25977;45.462;9.210;2023-07-08T12:51:06;31.70;58.20
40257;DHT22;25977;45.462;9.210;2023-07-08T12:53:35;31.50;57.90
40257;DHT22;25977;45.462;9.210;2023-07-08T12:56:01;31.60;58.10
40257;DHT22;25977;45.462;9.210;2023-07-08T12:58:33;31.70;58.00
40257;DHT22;25977;45.462;9.210;2023-07-08T13:01:02;31.70;58.00
40257;DHT22;25977;45.462;9.210;2023-07-08T13:03:34;31.90;58.00
40257;DHT22;25977;45.462;9.210;2023-07-08T13:06:02;31.90;57.90
40257;DHT22;25977;45.462;9.210;2023-07-08T13:08:30;32.00;57.90
40257;DHT22;25977;45.462;9.210;2023-07-08T13:11:01;32.10;57.80
40257;DHT22;25977;45.462;9.210;2023-07-08T13:13:31;32.00;57.50
40257;DHT22;25977;45.462;9.210;2023-07-08T13:15:59;31.90;57.60
40257;DHT22;25977;45.462;9.210;2023-07-08T13:18:37;32.00;57.80
40257;DHT22;25977;45.462;9.210;2023-07-08T13:21:05;31.90;57.70
40257;DHT22;25977;45.462;9.210;2023-07-08T13:23:32;31.80;57.80
40257;DHT22;25977;45.462;9.210;2023-07-08T13:25:59;31.60;58.10
40257;DHT22;25977;45.462;9.210;2023-07-08T13:28:37;31.70;58.00
40257;DHT22;25977;45.462;9.210;2023-07-08T13:31:20;31.90;57.70
40257;DHT22;25977;45.462;9.210;2023-07-08T13:33:50;32.10;57.70
40257;DHT22;25977;45.462;9.210;2023-07-08T13:36:19;32.20;57.20
40257;DHT22;25977;45.462;9.210;2023-07-08T13:38:46;32.30;57.00
40257;DHT22;25977;45.462;9.210;2023-07-08T13:41:21;32.30;57.00
40257;DHT22;25977;45.462;9.210;2023-07-08T13:43:48;32.40;57.00
40257;DHT22;25977;45.462;9.210;2023-07-08T13:46:39;32.40;56.80
40257;DHT22;25977;45.462;9.210;2023-07-08T13:49:13;32.40;56.80
40257;DHT22;25977;45.462;9.210;2023-07-08T13:51:40;32.40;57.00
40257;DHT22;25977;45.462;9.210;2023-07-08T13:54:26;32.50;56.90
40257;DHT22;25977;45.462;9.210;2023-07-08T13:57:00;32.40;56.90
40257;DHT22;25977;45.462;9.210;2023-07-08T13:59:26;32.50;56.90
40257;DHT22;25977;45.462;9.210;2023-07-08T14:01:55;32.50;56.90
40257;DHT22;25977;45.462;9.210;2023-07-08T14:04:29;32.50;56.60
40257;DHT22;25977;45.462;9.210;2023-07-08T14:06:56;32.50;57.20
40257;DHT22;25977;45.462;9.210;2023-07-08T14:09:23;32.50;56.60
40257;DHT22;25977;45.462;9.210;2023-07-08T14:11:50;32.30;56.70
40257;DHT22;25977;45.462;9.210;2023-07-08T14:14:17;32.30;56.70
40257;DHT22;25977;45.462;9.210;2023-07-08T14:16:45;32.20;56.90
40257;DHT22;25977;45.462;9.210;2023-07-08T14:21:54;32.00;57.10
40257;DHT22;25977;45.462;9.210;2023-07-08T14:24:20;32.10;57.10
40257;DHT22;25977;45.462;9.210;2023-07-08T14:26:46;32.10;56.80
40257;DHT22;25977;45.462;9.210;2023-07-08T14:29:11;32.00;57.10
40257;DHT22;25977;45.462;9.210;2023-07-08T14:31:39;32.10;57.20
40257;DHT22;25977;45.462;9.210;2023-07-08T14:34:22;32.00;57.30
40257;DHT22;25977;45.462;9.210;2023-07-08T14:36:48;32.10;57.40
40257;DHT22;25977;45.462;9.210;2023-07-08T14:39:15;32.10;57.20
40257;DHT22;25977;45.462;9.210;2023-07-08T14:41:42;32.10;57.00
40257;DHT22;25977;45.462;9.210;2023-07-08T14:44:26;32.00;57.00
40257;DHT22;25977;45.462;9.210;2023-07-08T14:46:52;32.00;57.10
40257;DHT22;25977;45.462;9.210;2023-07-08T14:49:21;32.00;57.20
40257;DHT22;25977;45.462;9.210;2023-07-08T14:51:47;32.00;57.20
40257;DHT22;25977;45.462;9.210;2023-07-08T14:54:13;31.90;57.20
40257;DHT22;25977;45.462;9.210;2023-07-08T14:56:41;31.90;57.30
40257;DHT22;25977;45.462;9.210;2023-07-08T14:59:13;31.80;57.10
40257;DHT22;25977;45.462;9.210;2023-07-08T15:01:40;31.80;57.20
40257;DHT22;25977;45.462;9.210;2023-07-08T15:04:15;31.80;57.30
40257;DHT22;25977;45.462;9.210;2023-07-08T15:06:43;31.80;57.20
40257;DHT22;25977;45.462;9.210;2023-07-08T15:09:09;31.80;57.20
40257;DHT22;25977;45.462;9.210;2023-07-08T15:11:36;31.50;57.10
40257;DHT22;25977;45.462;9.210;2023-07-08T15:14:04;31.40;57.40
40257;DHT22;25977;45.462;9.210;2023-07-08T15:16:30;31.40;57.60
40257;DHT22;25977;45.462;9.210;2023-07-08T15:18:56;31.50;57.50
40257;DHT22;25977;45.462;9.210;2023-07-08T15:21:23;31.60;57.30
40257;DHT22;25977;45.462;9.210;2023-07-08T15:23:48;31.60;57.30
40257;DHT22;25977;45.462;9.210;2023-07-08T15:26:14;31.60;57.60
40257;DHT22;25977;45.462;9.210;2023-07-08T15:28:45;31.60;57.30
40257;DHT22;25977;45.462;9.210;2023-07-08T15:31:23;31.60;57.30
40257;DHT22;25977;45.462;9.210;2023-07-08T15:33:52;31.70;57.20
40257;DHT22;25977;45.462;9.210;2023-07-08T15:36:19;31.60;57.10
40257;DHT22;25977;45.462;9.210;2023-07-08T15:38:44;31.50;57.20
40257;DHT22;25977;45.462;9.210;2023-07-08T15:41:24;31.60;57.50
40257;DHT22;25977;45.462;9.210;2023-07-08T15:43:53;31.70;57.40
40257;DHT22;25977;45.462;9.210;2023-07-08T15:46:19;31.40;57.70
40257;DHT22;25977;45.462;9.210;2023-07-08T15:48:44;31.40;58.00
40257;DHT22;25977;45.462;9.210;2023-07-08T15:51:14;31.40;58.00
40257;DHT22;25977;45.462;9.210;2023-07-08T15:53:40;31.50;58.10
40257;DHT22;25977;45.462;9.210;2023-07-08T15:56:18;31.50;57.90
40257;DHT22;25977;45.462;9.210;2023-07-08T15:58:45;31.40;58.30
40257;DHT22;25977;45.462;9.210;2023-07-08T16:01:17;31.50;58.60
40257;DHT22;25977;45.462;9.210;2023-07-08T16:03:43;31.50;58.60
40257;DHT22;25977;45.462;9.210;2023-07-08T16:06:09;31.50;58.70
40257;DHT22;25977;45.462;9.210;2023-07-08T16:08:35;31.50;58.80
40257;DHT22;25977;45.462;9.210;2023-07-08T16:11:04;31.60;58.90
40257;DHT22;25977;45.462;9.210;2023-07-08T16:13:36;31.50;58.90
40257;DHT22;25977;45.462;9.210;2023-07-08T16:16:03;31.60;59.20
40257;DHT22;25977;45.462;9.210;2023-07-08T16:18:29;31.60;59.40
40257;DHT22;25977;45.462;9.210;2023-07-08T16:20:55;31.70;59.50
40257;DHT22;25977;45.462;9.210;2023-07-08T16:23:21;31.60;59.10
40257;DHT22;25977;45.462;9.210;2023-07-08T16:25:51;31.60;59.40
40257;DHT22;25977;45.462;9.210;2023-07-08T16:28:43;31.50;59.70
40257;DHT22;25977;45.462;9.210;2023-07-08T16:31:35;31.50;59.90
40257;DHT22;25977;45.462;9.210;2023-07-08T16:34:01;31.50;60.10